createdAt,value
2023-01-11T00:00:55.311Z,3.48
2023-01-11T00:03:21.931Z,3.48
2023-01-11T00:05:48.538Z,3.55
2023-01-11T00:08:15.125Z,3.50
2023-01-11T00:10:42.042Z,3.44
2023-01-11T00:13:08.954Z,3.42
2023-01-11T00:15:38.124Z,3.54
2023-01-11T00:18:07.805Z,3.59
2023-01-11T00:20:34.557Z,3.57
2023-01-11T00:23:01.329Z,3.48
2023-01-11T00:25:27.940Z,3.53
2023-01-11T00:27:55.256Z,3.54
2023-01-11T00:30:22.078Z,3.55
2023-01-11T00:32:48.819Z,3.63
2023-01-11T00:35:15.950Z,3.64
2023-01-11T00:37:42.773Z,3.73
2023-01-11T00:40:09.905Z,3.65
2023-01-11T00:42:55.150Z,3.62
2023-01-11T00:45:43.409Z,3.68
2023-01-11T00:48:10.825Z,3.67
2023-01-11T00:50:39.572Z,3.81
2023-01-11T00:53:10.550Z,3.72
2023-01-11T00:55:37.213Z,3.75
2023-01-11T00:58:06.565Z,3.71
2023-01-11T01:00:33.199Z,3.75
2023-01-11T01:02:59.819Z,3.76
2023-01-11T01:05:26.859Z,3.81
2023-01-11T01:07:53.503Z,3.79
2023-01-11T01:10:20.545Z,3.83
2023-01-11T01:13:06.073Z,3.79
2023-01-11T01:15:33.053Z,3.82
2023-01-11T01:17:59.982Z,3.85
2023-01-11T01:20:27.239Z,3.83
2023-01-11T01:22:53.967Z,3.79
2023-01-11T01:25:20.588Z,3.76
2023-01-11T01:27:47.254Z,3.78
2023-01-11T01:30:14.221Z,3.79
2023-01-11T01:32:40.837Z,3.79
2023-01-11T01:35:08.032Z,3.77
2023-01-11T01:37:34.653Z,3.77
2023-01-11T01:40:01.459Z,3.71
2023-01-11T01:42:28.141Z,3.66
2023-01-11T01:45:02.474Z,3.75
2023-01-11T01:47:32.625Z,3.72
2023-01-11T01:50:02.025Z,3.71
2023-01-11T01:52:29.457Z,3.76
2023-01-11T01:54:58.049Z,3.73
2023-01-11T01:57:27.584Z,3.83
2023-01-11T01:59:55.984Z,3.82
2023-01-11T02:02:24.401Z,3.76
2023-01-11T02:04:51.474Z,3.81
2023-01-11T02:07:20.217Z,3.82
2023-01-11T02:09:51.574Z,3.84
2023-01-11T02:12:18.566Z,3.84
2023-01-11T02:14:45.718Z,3.87
2023-01-11T02:17:12.942Z,3.88
2023-01-11T02:19:51.893Z,3.86
2023-01-11T02:22:31.040Z,3.81
2023-01-11T02:25:00.528Z,3.85
2023-01-11T02:28:01.387Z,3.84
2023-01-11T02:30:50.034Z,3.83
2023-01-11T02:33:28.482Z,3.77
2023-01-11T02:36:08.761Z,3.77
2023-01-11T02:38:59.442Z,3.82
2023-01-11T02:41:55.941Z,3.80
2023-01-11T02:44:54.557Z,3.83
2023-01-11T02:47:42.526Z,3.82
2023-01-11T02:50:32.976Z,3.81
2023-01-11T02:53:26.791Z,3.78
2023-01-11T02:55:57.641Z,3.88
2023-01-11T02:58:27.609Z,3.86
2023-01-11T03:00:55.914Z,3.86
2023-01-11T03:03:24.898Z,3.86
2023-01-11T03:05:54.354Z,3.92
2023-01-11T03:08:58.060Z,3.94
2023-01-11T03:11:49.387Z,3.96
2023-01-11T03:14:24.943Z,3.89
2023-01-11T03:17:18.865Z,3.93
2023-01-11T03:19:48.433Z,3.98
2023-01-11T03:22:29.248Z,3.98
2023-01-11T03:24:59.612Z,4.05
2023-01-11T03:27:55.938Z,4.13
2023-01-11T03:30:29.237Z,4.20
2023-01-11T03:33:10.655Z,4.15
2023-01-11T03:35:48.263Z,4.19
2023-01-11T03:38:31.383Z,4.27
2023-01-11T03:41:02.228Z,4.23
2023-01-11T03:43:30.024Z,4.30
2023-01-11T03:46:04.906Z,4.39
2023-01-11T03:49:01.515Z,4.31
2023-01-11T03:51:30.141Z,4.35
2023-01-11T03:53:58.754Z,4.37
2023-01-11T03:56:32.722Z,4.38
2023-01-11T03:58:59.317Z,4.38
2023-01-11T04:01:26.372Z,4.33
2023-01-11T04:03:52.997Z,4.35
2023-01-11T04:06:19.722Z,4.38
2023-01-11T04:08:46.316Z,4.33
2023-01-11T04:11:12.979Z,4.39
2023-01-11T04:13:39.609Z,4.31
2023-01-11T04:16:06.720Z,4.31
2023-01-11T04:18:33.418Z,4.31
2023-01-11T04:21:00.097Z,4.31
2023-01-11T04:23:26.906Z,4.32
2023-01-11T04:25:53.529Z,4.34
2023-01-11T04:28:20.238Z,4.24
2023-01-11T04:30:48.186Z,4.35
2023-01-11T04:33:14.885Z,4.37
2023-01-11T04:35:42.297Z,4.37
2023-01-11T04:38:08.973Z,4.37
2023-01-11T04:40:35.598Z,4.43
2023-01-11T04:43:02.490Z,4.37
2023-01-11T04:45:30.453Z,4.46
2023-01-11T04:47:57.736Z,4.42
2023-01-11T04:50:25.471Z,4.47
2023-01-11T04:52:52.369Z,4.44
2023-01-11T04:55:19.601Z,4.52
2023-01-11T04:57:46.446Z,4.46
2023-01-11T05:00:15.856Z,4.55
2023-01-11T05:02:42.517Z,4.51
2023-01-11T05:05:13.267Z,4.44
2023-01-11T05:07:39.925Z,4.37
2023-01-11T05:10:06.903Z,4.52
2023-01-11T05:12:33.495Z,4.51
2023-01-11T05:15:00.121Z,4.53
2023-01-11T05:17:26.700Z,4.61
2023-01-11T05:19:53.408Z,4.60
2023-01-11T05:22:19.980Z,4.65
2023-01-11T05:24:46.632Z,4.64
2023-01-11T05:27:13.221Z,4.62
2023-01-11T05:29:39.817Z,4.65
2023-01-11T05:32:06.450Z,4.66
2023-01-11T05:34:33.134Z,4.62
2023-01-11T05:36:59.776Z,4.74
2023-01-11T05:39:26.399Z,4.75
2023-01-11T05:41:52.946Z,4.70
2023-01-11T05:44:38.405Z,4.69
2023-01-11T05:47:05.055Z,4.76
2023-01-11T05:49:31.637Z,4.80
2023-01-11T05:51:58.255Z,4.78
2023-01-11T05:54:24.872Z,4.77
2023-01-11T05:56:51.489Z,4.76
2023-01-11T05:59:18.076Z,4.77
2023-01-11T06:01:44.696Z,4.84
2023-01-11T06:04:11.536Z,4.87
2023-01-11T06:06:38.275Z,4.84
2023-01-11T06:09:04.985Z,4.89
2023-01-11T06:11:31.587Z,4.86
2023-01-11T06:13:58.149Z,4.78
2023-01-11T06:16:24.868Z,4.76
2023-01-11T06:18:53.254Z,4.88
2023-01-11T06:21:20.561Z,4.83
2023-01-11T06:23:50.686Z,4.81
2023-01-11T06:26:19.653Z,4.89
2023-01-11T06:28:46.876Z,4.89
2023-01-11T06:31:16.066Z,4.93
2023-01-11T06:33:43.701Z,4.90
2023-01-11T06:36:12.256Z,4.96
2023-01-11T06:38:39.039Z,4.92
2023-01-11T06:41:08.402Z,4.96
2023-01-11T06:43:36.503Z,5.00
2023-01-11T06:46:03.226Z,4.95
2023-01-11T06:48:29.897Z,4.92
2023-01-11T06:50:57.981Z,5.02
2023-01-11T06:53:28.319Z,4.98
2023-01-11T06:55:57.119Z,5.04
2023-01-11T06:58:24.663Z,5.00
2023-01-11T07:00:52.747Z,5.04
2023-01-11T07:03:20.632Z,5.03
2023-01-11T07:05:47.513Z,5.02
2023-01-11T07:08:14.108Z,5.08
2023-01-11T07:10:41.675Z,5.13
2023-01-11T07:13:08.316Z,5.07
2023-01-11T07:15:35.062Z,5.17
2023-01-11T07:18:02.291Z,5.22
2023-01-11T07:20:29.463Z,5.20
2023-01-11T07:23:00.230Z,5.21
2023-01-11T07:25:28.000Z,5.24
2023-01-11T07:28:02.792Z,5.18
2023-01-11T07:30:31.086Z,5.19
2023-01-11T07:32:58.893Z,5.14
2023-01-11T07:35:28.109Z,5.20
2023-01-11T07:37:55.565Z,5.15
2023-01-11T07:40:22.192Z,5.11
2023-01-11T07:43:08.832Z,5.16
2023-01-11T07:45:45.262Z,5.16
2023-01-11T07:48:12.521Z,5.11
2023-01-11T07:50:41.239Z,5.05
2023-01-11T07:53:09.754Z,5.12
2023-01-11T07:55:37.793Z,5.08
2023-01-11T07:58:04.451Z,5.08
2023-01-11T08:00:31.109Z,5.00
2023-01-11T08:02:58.137Z,4.95
2023-01-11T08:05:24.995Z,5.11
2023-01-11T08:07:51.611Z,5.08
2023-01-11T08:10:18.300Z,5.07
2023-01-11T08:13:05.031Z,5.04
2023-01-11T08:15:32.713Z,5.03
2023-01-11T08:17:59.607Z,5.01
2023-01-11T08:20:27.148Z,5.02
2023-01-11T08:22:54.006Z,5.01
2023-01-11T08:25:20.898Z,4.93
2023-01-11T08:27:47.757Z,4.99
2023-01-11T08:30:14.715Z,4.94
2023-01-11T08:32:41.377Z,4.90
2023-01-11T08:35:08.310Z,4.90
2023-01-11T08:37:34.963Z,4.91
2023-01-11T08:40:01.606Z,4.94
2023-01-11T08:42:28.281Z,4.86
2023-01-11T08:44:55.549Z,4.82
2023-01-11T08:47:22.480Z,4.90
2023-01-11T08:49:49.116Z,4.87
2023-01-11T08:52:15.713Z,4.86
2023-01-11T08:54:42.434Z,4.84
2023-01-11T08:57:09.809Z,4.87
2023-01-11T08:59:36.483Z,4.82
2023-01-11T09:02:04.912Z,4.90
2023-01-11T09:04:32.050Z,4.86
2023-01-11T09:06:58.672Z,4.87
2023-01-11T09:09:25.448Z,4.90
2023-01-11T09:11:55.025Z,4.96
2023-01-11T09:14:22.764Z,4.89
2023-01-11T09:16:49.384Z,4.96
2023-01-11T09:19:15.984Z,4.88
2023-01-11T09:21:43.395Z,4.96
2023-01-11T09:24:09.980Z,5.00
2023-01-11T09:26:38.014Z,4.94
2023-01-11T09:29:05.266Z,4.97
2023-01-11T09:31:32.105Z,4.93
2023-01-11T09:33:58.802Z,4.98
2023-01-11T09:36:27.817Z,5.00
2023-01-11T09:38:57.400Z,5.03
2023-01-11T09:42:01.194Z,4.98
2023-01-11T09:44:32.586Z,5.10
2023-01-11T09:47:19.696Z,5.11
2023-01-11T09:49:54.516Z,5.02
2023-01-11T09:52:28.746Z,5.13
2023-01-11T09:55:01.320Z,5.02
2023-01-11T09:57:50.343Z,5.10
2023-01-11T10:00:33.630Z,5.13
2023-01-11T10:03:45.021Z,5.17
2023-01-11T10:06:11.599Z,5.23
2023-01-11T10:18:34.080Z,5.25
2023-01-11T10:18:41.879Z,5.33
2023-01-11T10:21:13.407Z,5.34
2023-01-11T10:23:56.001Z,5.41
2023-01-11T10:26:28.751Z,5.44
2023-01-11T10:29:16.802Z,5.49
2023-01-11T10:32:03.311Z,5.43
2023-01-11T10:34:53.173Z,5.47
2023-01-11T10:37:42.021Z,5.57
2023-01-11T10:40:30.372Z,5.62
2023-01-11T10:43:03.433Z,5.65
2023-01-11T10:45:37.538Z,5.68
2023-01-11T10:48:10.150Z,5.69
2023-01-11T10:50:42.043Z,5.73
2023-01-11T10:53:40.722Z,5.75
2023-01-11T10:57:02.535Z,5.79
2023-01-11T11:00:17.529Z,5.79
2023-01-11T11:03:11.137Z,5.74
2023-01-11T11:05:37.733Z,5.81
2023-01-11T11:08:46.667Z,5.90
2023-01-11T11:11:22.391Z,5.90
2023-01-11T11:14:37.496Z,5.93
2023-01-11T11:17:22.610Z,5.89
2023-01-11T11:19:49.492Z,5.88
2023-01-11T11:22:16.298Z,5.93
2023-01-11T11:24:49.797Z,6.00
2023-01-11T11:27:21.387Z,6.04
2023-01-11T11:29:55.901Z,6.07
2023-01-11T11:32:28.489Z,5.97
2023-01-11T11:34:55.447Z,6.00
2023-01-11T11:37:33.535Z,6.04
2023-01-11T11:40:00.359Z,6.03
2023-01-11T11:42:27.238Z,6.05
2023-01-11T11:45:09.079Z,6.20
2023-01-11T11:47:36.612Z,6.15
2023-01-11T11:50:27.339Z,6.23
2023-01-11T11:53:04.832Z,6.18
2023-01-11T11:55:33.798Z,6.16
2023-01-11T11:58:05.283Z,6.18
2023-01-11T12:00:41.592Z,6.23
2023-01-11T12:03:17.518Z,6.23
2023-01-11T12:05:52.807Z,6.14
2023-01-11T12:08:20.106Z,6.30
2023-01-11T12:10:53.974Z,6.23
2023-01-11T12:13:33.032Z,6.21
2023-01-11T12:16:26.662Z,6.37
2023-01-11T12:18:56.355Z,6.34
2023-01-11T12:21:25.529Z,6.29
2023-01-11T12:24:09.033Z,6.27
2023-01-11T12:27:08.073Z,6.31
2023-01-11T12:30:00.569Z,6.39
2023-01-11T12:33:07.179Z,6.44
2023-01-11T12:35:54.161Z,6.37
2023-01-11T12:38:32.877Z,6.42
2023-01-11T12:41:20.935Z,6.46
2023-01-11T12:43:58.178Z,6.57
2023-01-11T12:46:54.512Z,6.46
2023-01-11T12:49:49.045Z,6.49
2023-01-11T12:52:35.881Z,6.48
2023-01-11T12:55:26.315Z,6.43
2023-01-11T12:58:00.400Z,6.49
2023-01-11T13:00:37.758Z,6.58
2023-01-11T13:03:43.560Z,6.58
2023-01-11T13:06:15.111Z,6.52
2023-01-11T13:08:53.197Z,6.54
2023-01-11T13:11:53.799Z,6.56
2023-01-11T13:14:39.442Z,6.64
2023-01-11T13:17:24.857Z,6.69
2023-01-11T13:20:02.740Z,6.67
2023-01-11T13:22:33.810Z,6.72
2023-01-11T13:25:03.421Z,6.65
2023-01-11T13:27:31.886Z,6.65
2023-01-11T13:30:00.948Z,6.70
2023-01-11T13:32:31.106Z,6.68
2023-01-11T13:35:03.162Z,6.64
2023-01-11T13:37:34.447Z,6.61
2023-01-11T13:40:18.191Z,6.55
2023-01-11T13:42:51.341Z,6.63
2023-01-11T13:45:27.707Z,6.62
2023-01-11T13:47:56.998Z,6.57
2023-01-11T13:50:33.471Z,6.69
2023-01-11T13:53:18.553Z,6.63
2023-01-11T13:56:03.230Z,6.64
2023-01-11T13:58:44.527Z,6.75
2023-01-11T14:01:14.502Z,6.67
2023-01-11T14:03:54.096Z,6.67
2023-01-11T14:06:42.447Z,6.77
2023-01-11T14:09:26.002Z,6.74
2023-01-11T14:12:01.901Z,6.80
2023-01-11T14:14:43.972Z,6.75
2023-01-11T14:17:17.165Z,6.77
2023-01-11T14:19:53.726Z,6.80
2023-01-11T14:23:10.663Z,6.77
2023-01-11T14:25:53.140Z,6.71
2023-01-11T14:28:35.000Z,6.75
2023-01-11T14:31:24.882Z,6.73
2023-01-11T14:34:10.942Z,6.67
2023-01-11T14:36:59.297Z,6.75
2023-01-11T14:39:35.881Z,6.74
2023-01-11T14:42:31.111Z,6.78
2023-01-11T14:45:16.788Z,6.71
2023-01-11T14:47:59.855Z,6.75
2023-01-11T14:50:32.372Z,6.69
2023-01-11T14:53:00.988Z,6.74
2023-01-11T14:55:30.065Z,6.75
2023-01-11T14:57:56.648Z,6.82
2023-01-11T15:00:23.168Z,6.72
2023-01-11T15:02:59.766Z,6.77
2023-01-11T15:05:29.594Z,6.72
2023-01-11T15:08:14.459Z,6.75
2023-01-11T15:10:58.656Z,6.73
2023-01-11T15:13:28.279Z,6.70
2023-01-11T15:16:27.550Z,6.74
2023-01-11T15:18:54.912Z,6.69
2023-01-11T15:21:24.163Z,6.69
2023-01-11T15:23:56.912Z,6.69
2023-01-11T15:26:25.045Z,6.69
2023-01-11T15:28:54.044Z,6.72
2023-01-11T15:31:37.527Z,6.82
2023-01-11T15:34:43.969Z,6.78
2023-01-11T15:37:38.395Z,6.78
2023-01-11T15:40:05.241Z,6.73
2023-01-11T15:42:47.999Z,6.80
2023-01-11T15:46:11.323Z,6.94
2023-01-11T15:49:05.877Z,7.00
2023-01-11T15:52:14.098Z,6.99
2023-01-11T15:55:14.740Z,6.95
2023-01-11T15:58:18.842Z,6.96
2023-01-11T16:01:21.685Z,7.04
2023-01-11T16:03:54.221Z,6.98
2023-01-11T16:06:30.144Z,6.99
2023-01-11T16:09:05.901Z,6.98
2023-01-11T16:12:07.695Z,6.95
2023-01-11T16:15:12.810Z,7.02
2023-01-11T16:17:42.776Z,7.07
2023-01-11T16:20:26.546Z,7.01
2023-01-11T16:22:58.937Z,7.03
2023-01-11T16:25:29.401Z,6.98
2023-01-11T16:27:58.435Z,6.95
2023-01-11T16:30:26.466Z,6.98
2023-01-11T16:32:53.708Z,7.02
2023-01-11T16:35:24.897Z,7.05
2023-01-11T16:37:54.210Z,7.05
2023-01-11T16:40:37.140Z,7.05
2023-01-11T16:43:11.655Z,7.03
2023-01-11T16:45:50.356Z,7.06
2023-01-11T16:48:24.983Z,7.02
2023-01-11T16:51:07.332Z,7.00
2023-01-11T16:53:36.139Z,6.98
2023-01-11T16:56:08.365Z,6.98
2023-01-11T16:58:36.658Z,7.02
2023-01-11T17:01:14.126Z,7.01
2023-01-11T17:03:46.886Z,6.97
2023-01-11T17:06:13.451Z,6.99
2023-01-11T17:08:56.916Z,7.01
2023-01-11T17:11:31.847Z,7.00
2023-01-11T17:14:40.693Z,7.01
2023-01-11T17:17:10.003Z,7.02
2023-01-11T17:19:43.191Z,7.00
2023-01-11T17:22:19.150Z,7.08
2023-01-11T17:25:01.324Z,7.04
2023-01-11T17:27:30.687Z,7.02
2023-01-11T17:29:58.285Z,7.14
2023-01-11T17:32:59.042Z,7.08
2023-01-11T17:35:34.746Z,7.15
2023-01-11T17:38:08.611Z,7.11
2023-01-11T17:40:38.456Z,7.12
2023-01-11T17:43:38.522Z,7.10
2023-01-11T17:46:05.850Z,7.11
2023-01-11T17:48:33.070Z,7.20
2023-01-11T17:51:01.199Z,7.15
2023-01-11T17:53:28.653Z,7.15
2023-01-11T17:55:56.924Z,7.33
2023-01-11T17:58:28.593Z,7.28
2023-01-11T18:01:04.840Z,7.42
2023-01-11T18:03:39.600Z,7.33
2023-01-11T18:06:23.943Z,7.28
2023-01-11T18:08:53.849Z,7.38
2023-01-11T18:11:23.332Z,7.39
2023-01-11T18:13:54.401Z,7.32
2023-01-11T18:16:22.342Z,7.30
2023-01-11T18:18:50.948Z,7.25
2023-01-11T18:21:26.611Z,7.27
2023-01-11T18:24:21.476Z,7.32
2023-01-11T18:26:48.258Z,7.42
2023-01-11T18:29:36.834Z,7.37
2023-01-11T18:32:04.595Z,7.44
2023-01-11T18:34:32.087Z,7.37
2023-01-11T18:36:59.765Z,7.27
2023-01-11T18:39:28.452Z,7.30
2023-01-11T18:42:10.359Z,7.24
2023-01-11T18:44:42.215Z,7.27
2023-01-11T18:47:29.713Z,7.23
2023-01-11T18:49:57.292Z,7.23
2023-01-11T18:52:27.615Z,7.30
2023-01-11T18:54:55.679Z,7.25
2023-01-11T18:57:23.653Z,7.29
2023-01-11T18:59:54.319Z,7.44
2023-01-11T19:02:24.192Z,7.36
2023-01-11T19:04:51.870Z,7.34
2023-01-11T19:07:18.676Z,7.39
2023-01-11T19:09:45.539Z,7.47
2023-01-11T19:12:13.222Z,7.36
2023-01-11T19:14:43.385Z,7.39
2023-01-11T19:17:11.021Z,7.42
2023-01-11T19:19:37.745Z,7.43
2023-01-11T19:22:04.700Z,7.33
2023-01-11T19:24:31.836Z,7.43
2023-01-11T19:26:58.573Z,7.44
2023-01-11T19:29:25.486Z,7.32
2023-01-11T19:31:53.388Z,7.34
2023-01-11T19:34:20.301Z,7.33
2023-01-11T19:36:47.239Z,7.34
2023-01-11T19:39:13.995Z,7.23
2023-01-11T19:41:57.991Z,7.25
2023-01-11T19:44:26.944Z,7.19
2023-01-11T19:47:09.629Z,7.05
2023-01-11T19:49:36.943Z,6.92
2023-01-11T19:52:03.645Z,6.95
2023-01-11T19:54:30.347Z,6.90
2023-01-11T19:56:57.010Z,7.06
2023-01-11T19:59:23.645Z,7.06
2023-01-11T20:01:50.317Z,7.14
2023-01-11T20:04:17.274Z,7.17
2023-01-11T20:06:51.763Z,7.10
2023-01-11T20:09:19.773Z,7.05
2023-01-11T20:11:49.053Z,7.00
2023-01-11T20:14:16.916Z,7.01
2023-01-11T20:16:43.697Z,7.07
2023-01-11T20:19:10.695Z,7.11
2023-01-11T20:21:37.510Z,6.87
2023-01-11T20:24:04.705Z,6.96
2023-01-11T20:26:34.072Z,6.93
2023-01-11T20:29:01.210Z,6.86
2023-01-11T20:31:31.648Z,6.82
2023-01-11T20:34:05.678Z,6.72
2023-01-11T20:36:32.404Z,6.75
2023-01-11T20:38:59.299Z,6.71
2023-01-11T20:41:46.127Z,6.69
2023-01-11T20:44:22.137Z,6.70
2023-01-11T20:46:48.910Z,6.72
2023-01-11T20:49:16.562Z,6.65
2023-01-11T20:51:44.170Z,6.53
2023-01-11T20:54:11.269Z,6.53
2023-01-11T20:56:38.940Z,6.48
2023-01-11T20:59:07.137Z,6.41
2023-01-11T21:01:33.955Z,6.37
2023-01-11T21:04:03.175Z,6.34
2023-01-11T21:06:35.951Z,6.30
2023-01-11T21:09:03.812Z,6.29
2023-01-11T21:11:31.419Z,6.35
2023-01-11T21:14:01.475Z,6.47
2023-01-11T21:16:29.338Z,6.35
2023-01-11T21:19:01.486Z,6.30
2023-01-11T21:21:29.806Z,6.27
2023-01-11T21:23:58.952Z,6.27
2023-01-11T21:26:26.617Z,6.11
2023-01-11T21:28:55.732Z,6.06
2023-01-11T21:31:22.939Z,5.97
2023-01-11T21:33:50.076Z,5.93
2023-01-11T21:36:23.043Z,5.98
2023-01-11T21:38:56.055Z,5.96
2023-01-11T21:41:49.731Z,5.82
2023-01-11T21:44:18.710Z,5.82
2023-01-11T21:46:46.012Z,5.78
2023-01-11T21:49:13.289Z,5.74
2023-01-11T21:51:43.268Z,5.69
2023-01-11T21:54:20.476Z,5.70
2023-01-11T21:56:49.952Z,5.59
2023-01-11T21:59:23.681Z,5.51
2023-01-11T22:01:50.436Z,5.44
2023-01-11T22:04:19.174Z,5.45
2023-01-11T22:06:53.165Z,5.44
2023-01-11T22:09:20.546Z,5.33
2023-01-11T22:11:47.266Z,5.31
2023-01-11T22:14:14.702Z,5.33
2023-01-11T22:16:44.245Z,5.32
2023-01-11T22:19:11.918Z,5.33
2023-01-11T22:21:38.617Z,5.37
2023-01-11T22:24:10.351Z,5.35
2023-01-11T22:26:40.706Z,5.27
2023-01-11T22:29:20.255Z,5.22
2023-01-11T22:31:54.857Z,5.14
2023-01-11T22:34:22.379Z,5.07
2023-01-11T22:36:49.282Z,5.04
2023-01-11T22:39:16.691Z,5.01
2023-01-11T22:41:45.609Z,5.13
2023-01-11T22:44:15.233Z,5.03
2023-01-11T22:46:42.277Z,4.96
2023-01-11T22:49:14.836Z,4.98
2023-01-11T22:51:43.042Z,4.93
2023-01-11T22:54:10.894Z,4.94
2023-01-11T22:56:39.773Z,4.93
2023-01-11T22:59:09.327Z,4.85
2023-01-11T23:01:38.636Z,4.80
2023-01-11T23:04:10.409Z,4.77
2023-01-11T23:06:40.302Z,4.80
2023-01-11T23:09:17.528Z,4.86
2023-01-11T23:12:03.168Z,4.77
2023-01-11T23:14:31.035Z,4.79
2023-01-11T23:17:11.720Z,4.75
2023-01-11T23:19:43.795Z,4.78
2023-01-11T23:22:13.272Z,4.75
2023-01-11T23:24:45.501Z,4.75
2023-01-11T23:27:12.186Z,4.84
2023-01-11T23:29:39.161Z,4.81
2023-01-11T23:32:05.960Z,4.76
2023-01-11T23:34:32.724Z,4.78
2023-01-11T23:37:02.379Z,4.75
2023-01-11T23:39:30.696Z,4.67
2023-01-11T23:42:15.978Z,4.79
2023-01-11T23:44:46.980Z,4.81
2023-01-11T23:47:26.708Z,4.82
2023-01-11T23:49:58.410Z,4.75
2023-01-11T23:52:26.836Z,4.76
2023-01-11T23:54:54.212Z,4.73
2023-01-11T23:57:21.732Z,4.88
2023-01-11T23:59:48.608Z,4.79
